Time;durP1;ratioP1;P1;durP2;ratioP2;P2;SDS_P1;SDS_P2;PMS_P1;PMS_P2;Temp;Humidity;BMP_temperature;BMP_pressure;BME280_temperature;BME280_humidity;BME280_pressure;Samples;Min_cycle;Max_cycle;Signal;HPM_P1;HPM_P2
2021/12/30 00:00:12;;;;;;;9.95;8.98;;;;;;;-0.28;87.83;100968.17;460362;113;922415;-76
2021/12/30 00:01:25;;;;;;;12.14;11.01;;;;;;;-0.29;87.84;100971.83;459456;113;930686;-76
2021/12/30 00:02:30;;;;;;;10.25;9.30;;;;;;;-0.31;87.85;100963.07;459323;114;922639;-76
2021/12/30 00:03:33;;;;;;;11.36;10.26;;;;;;;-0.32;87.85;100961.37;459995;114;922831;-75
2021/12/30 00:04:37;;;;;;;12.12;10.83;;;;;;;-0.35;87.87;100959.83;460438;113;922528;-76
2021/12/30 00:05:41;;;;;;;9.09;8.29;;;;;;;-0.36;87.88;100962.63;460639;112;930163;-76
2021/12/30 00:06:44;;;;;;;9.62;8.66;;;;;;;-0.38;87.86;100968.11;459456;114;922641;-76
2021/12/30 00:07:48;;;;;;;10.48;9.58;;;;;;;-0.40;87.88;100964.74;459417;113;922582;-76
2021/12/30 00:08:53;;;;;;;14.54;9.75;;;;;;;-0.41;87.89;100968.40;461456;113;930562;-77
2021/12/30 00:09:57;;;;;;;9.67;8.58;;;;;;;-0.43;87.90;100965.84;459269;114;923130;-75
2021/12/30 00:11:02;;;;;;;10.12;8.86;;;;;;;-0.40;87.92;100971.92;460397;113;922660;-76
2021/12/30 00:12:07;;;;;;;9.35;8.45;;;;;;;-0.41;87.93;100979.11;461226;113;922590;-75
2021/12/30 00:13:12;;;;;;;8.71;7.91;;;;;;;-0.40;87.92;100975.45;458675;114;922603;-75
2021/12/30 00:14:15;;;;;;;9.63;8.73;;;;;;;-0.40;87.91;100978.14;459077;114;922586;-76
2021/12/30 00:15:19;;;;;;;9.06;8.04;;;;;;;-0.39;87.98;100981.67;460748;114;922694;-75
2021/12/30 00:16:23;;;;;;;9.62;8.72;;;;;;;-0.39;87.95;100979.84;461624;113;923008;-76
2021/12/30 00:17:26;;;;;;;9.68;8.78;;;;;;;-0.38;87.93;100980.66;458948;114;922672;-75
2021/12/30 00:18:30;;;;;;;9.33;8.46;;;;;;;-0.38;87.94;100976.16;458850;114;930512;-75
2021/12/30 00:19:33;;;;;;;11.76;10.68;;;;;;;-0.38;87.92;100977.98;460561;114;923706;-75
2021/12/30 00:20:37;;;;;;;8.40;7.62;;;;;;;-0.37;87.94;100977.00;461318;113;922695;-76
2021/12/30 00:21:41;;;;;;;7.92;7.21;;;;;;;-0.35;87.88;100977.73;459384;113;922479;-75
2021/12/30 00:22:44;;;;;;;9.50;8.73;;;;;;;-0.36;87.86;100981.38;462383;114;922569;-75
2021/12/30 00:23:48;;;;;;;8.37;7.61;;;;;;;-0.38;87.82;100978.83;461687;114;930622;-74
2021/12/30 00:24:51;;;;;;;8.53;7.57;;;;;;;-0.39;87.89;100979.84;459939;114;922469;-75
2021/12/30 00:25:55;;;;;;;8.68;7.89;;;;;;;-0.39;87.88;100977.16;461102;113;922643;-75
2021/12/30 00:26:58;;;;;;;8.75;7.92;;;;;;;-0.37;87.85;100972.50;461697;113;930602;-76
2021/12/30 00:28:02;;;;;;;7.80;7.14;;;;;;;-0.35;87.85;100972.37;459826;113;931001;-75
2021/12/30 00:29:05;;;;;;;9.88;8.98;;;;;;;-0.33;87.79;100975.77;460411;113;930553;-74
2021/12/30 00:30:11;;;;;;;9.86;8.98;;;;;;;-0.33;87.77;100981.95;459349;114;930157;-75
2021/12/30 00:31:15;;;;;;;10.39;9.39;;;;;;;-0.33;87.75;100981.95;461743;113;922372;-75
2021/12/30 00:32:18;;;;;;;8.82;7.98;;;;;;;-0.33;87.75;100981.12;462325;113;922648;-76
2021/12/30 00:33:23;;;;;;;10.19;9.36;;;;;;;-0.32;87.79;100977.44;460372;113;922428;-74
2021/12/30 00:34:28;;;;;;;8.20;7.46;;;;;;;-0.31;87.80;100985.35;459107;114;922520;-76
2021/12/30 00:35:32;;;;;;;9.71;8.81;;;;;;;-0.32;87.78;100977.44;460368;113;922637;-76
2021/12/30 00:36:35;;;;;;;10.16;9.27;;;;;;;-0.32;87.75;100982.80;462997;113;930519;-77
2021/12/30 00:37:39;;;;;;;10.30;9.43;;;;;;;-0.33;87.70;100975.77;461619;113;922488;-76
2021/12/30 00:38:44;;;;;;;9.83;9.04;;;;;;;-0.33;87.63;100983.81;461493;113;922775;-75
2021/12/30 00:39:47;;;;;;;8.43;7.69;;;;;;;-0.35;87.61;100983.09;462637;113;922758;-75
2021/12/30 00:40:51;;;;;;;10.86;9.94;;;;;;;-0.36;87.67;100981.38;461846;113;922691;-76
2021/12/30 00:41:54;;;;;;;10.29;9.36;;;;;;;-0.35;87.64;100980.41;460024;113;930551;-75
2021/12/30 00:42:59;;;;;;;10.81;9.91;;;;;;;-0.35;87.63;100978.58;462289;113;930574;-75
2021/12/30 00:44:03;;;;;;;10.58;9.68;;;;;;;-0.33;87.66;100983.81;462364;113;930667;-75
2021/12/30 00:45:07;;;;;;;9.39;8.63;;;;;;;-0.33;87.65;100983.81;460906;113;922489;-76
2021/12/30 00:46:13;;;;;;;11.14;10.23;;;;;;;-0.33;87.61;100984.62;459855;113;922888;-76
2021/12/30 00:47:16;;;;;;;10.21;9.39;;;;;;;-0.33;87.61;100976.59;463412;113;923392;-76
2021/12/30 00:48:20;;;;;;;10.09;9.24;;;;;;;-0.32;87.57;100982.80;461652;113;930571;-76
2021/12/30 00:49:23;;;;;;;10.21;9.41;;;;;;;-0.33;87.54;100978.45;460846;113;922549;-76
2021/12/30 00:50:28;;;;;;;10.46;9.68;;;;;;;-0.34;87.50;100976.75;459931;113;922791;-76
2021/12/30 00:51:31;;;;;;;10.79;9.92;;;;;;;-0.35;87.49;100975.05;463456;113;922623;-76
2021/12/30 00:52:34;;;;;;;11.16;10.22;;;;;;;-0.35;87.45;100983.09;460712;113;922748;-75
2021/12/30 00:53:38;;;;;;;12.13;11.16;;;;;;;-0.35;87.38;100980.41;459538;113;922521;-76
2021/12/30 00:54:41;;;;;;;10.45;9.65;;;;;;;-0.33;87.41;100981.12;455279;115;922704;-77
2021/12/30 00:55:45;;;;;;;10.59;9.79;;;;;;;-0.35;87.40;100983.94;456163;113;922752;-77
2021/12/30 00:56:48;;;;;;;10.69;9.82;;;;;;;-0.36;87.34;100987.59;461754;113;923150;-75
2021/12/30 00:57:52;;;;;;;10.53;9.71;;;;;;;-0.36;87.30;100984.06;459493;113;922545;-76
2021/12/30 00:58:55;;;;;;;11.12;10.26;;;;;;;-0.36;87.31;100997.45;462169;113;924914;-76
2021/12/30 00:59:59;;;;;;;12.16;11.17;;;;;;;-0.37;87.24;100993.08;461939;113;924828;-76
2021/12/30 01:01:04;;;;;;;11.29;10.30;;;;;;;-0.37;87.24;100993.08;462071;113;922489;-76
2021/12/30 01:02:08;;;;;;;11.40;10.44;;;;;;;-0.35;87.31;100999.16;461621;113;930273;-76
2021/12/30 01:03:14;;;;;;;10.08;9.26;;;;;;;-0.34;87.29;100990.14;461497;113;922850;-76
2021/12/30 01:04:20;;;;;;;10.51;9.70;;;;;;;-0.33;87.25;100989.17;456469;115;922528;-76
2021/12/30 01:05:23;;;;;;;10.40;9.49;;;;;;;-0.34;87.24;100996.35;456239;113;923175;-76
2021/12/30 01:06:28;;;;;;;10.68;9.79;;;;;;;-0.35;87.29;100988.44;461937;113;922711;-75
2021/12/30 01:07:32;;;;;;;12.09;10.91;;;;;;;-0.34;87.27;100987.47;462460;113;922645;-75
2021/12/30 01:08:35;;;;;;;9.61;8.88;;;;;;;-0.31;87.28;100990.71;461562;113;923150;-76
2021/12/30 01:09:39;;;;;;;11.38;10.39;;;;;;;-0.31;87.31;100990.71;461477;113;930472;-76
2021/12/30 01:10:44;;;;;;;12.51;11.49;;;;;;;-0.29;87.36;100991.44;461850;113;922672;-77
2021/12/30 01:11:47;;;;;;;13.49;12.49;;;;;;;-0.27;87.23;100996.64;461392;113;930457;-75
2021/12/30 01:12:54;;;;;;;12.57;11.57;;;;;;;-0.27;87.23;100996.64;462201;113;930320;-75
2021/12/30 01:14:02;;;;;;;12.80;11.16;;;;;;;-0.26;87.28;100988.47;461391;113;922845;-76
2021/12/30 01:15:08;;;;;;;11.59;10.75;;;;;;;-0.24;87.28;100991.02;460956;113;922661;-76
2021/12/30 01:16:18;;;;;;;11.34;10.37;;;;;;;-0.23;87.29;101001.61;463435;113;922607;-76
2021/12/30 01:17:40;;;;;;;10.41;9.61;;;;;;;-0.24;87.25;100991.88;462304;113;922393;-76
2021/12/30 01:18:53;;;;;;;11.05;10.11;;;;;;;-0.23;87.22;101000.77;462816;112;922047;-76
2021/12/30 01:19:44;;;;;;;10.74;9.92;;;;;;;-0.24;87.23;100994.55;462491;111;922591;-76
2021/12/30 01:20:49;;;;;;;10.93;10.03;;;;;;;-0.23;87.18;100998.94;460858;113;922688;-75
2021/12/30 01:21:54;;;;;;;11.67;10.78;;;;;;;-0.24;87.17;100991.02;460471;113;922247;-77
2021/12/30 01:22:57;;;;;;;11.16;10.26;;;;;;;-0.23;87.17;100987.37;462857;113;930237;-75
2021/12/30 01:24:02;;;;;;;11.56;10.63;;;;;;;-0.24;87.17;100989.20;460562;113;922233;-76
2021/12/30 01:25:07;;;;;;;10.88;9.95;;;;;;;-0.23;87.16;100992.73;462323;113;929979;-77
2021/12/30 01:26:11;;;;;;;12.09;11.00;;;;;;;-0.21;87.16;100993.42;463099;113;922625;-77
2021/12/30 01:27:15;;;;;;;11.43;10.44;;;;;;;-0.20;87.15;100987.08;462395;113;922302;-76
2021/12/30 01:28:18;;;;;;;11.73;10.75;;;;;;;-0.19;87.16;100991.47;460617;113;930258;-76
2021/12/30 01:29:24;;;;;;;11.46;10.52;;;;;;;-0.16;87.16;100983.14;462300;113;922692;-75
2021/12/30 01:30:28;;;;;;;11.47;10.51;;;;;;;-0.15;87.11;100992.87;462204;113;923084;-75
2021/12/30 01:31:31;;;;;;;12.51;11.61;;;;;;;-0.16;87.16;100988.50;460561;113;923070;-76
2021/12/30 01:32:37;;;;;;;11.48;10.48;;;;;;;-0.14;87.17;100987.39;461158;113;930358;-76
2021/12/30 01:33:43;;;;;;;12.04;11.12;;;;;;;-0.12;87.17;100987.27;461927;113;922782;-75
2021/12/30 01:34:47;;;;;;;12.17;11.19;;;;;;;-0.11;87.18;100992.47;462159;113;923619;-76
2021/12/30 01:35:51;;;;;;;11.84;10.89;;;;;;;-0.07;87.22;100993.06;462807;113;923755;-76
2021/12/30 01:36:55;;;;;;;11.66;10.73;;;;;;;-0.06;87.23;100989.41;461315;113;923269;-77
2021/12/30 01:38:01;;;;;;;11.29;10.35;;;;;;;-0.03;87.21;100991.80;458559;115;922207;-77
2021/12/30 01:39:04;;;;;;;12.01;11.02;;;;;;;-0.02;87.19;100991.67;458159;115;922609;-76
2021/12/30 01:40:13;;;;;;;11.56;10.57;;;;;;;-0.02;87.18;100990.81;459388;115;922479;-75
2021/12/30 01:41:17;;;;;;;12.26;11.26;;;;;;;0.00;87.16;100994.22;458484;114;922999;-75
2021/12/30 01:42:21;;;;;;;12.40;11.40;;;;;;;-0.01;87.12;100988.01;457973;114;922502;-76
2021/12/30 01:43:24;;;;;;;11.41;10.46;;;;;;;0.00;87.11;100989.67;458644;114;930859;-74
2021/12/30 01:44:32;;;;;;;12.06;11.16;;;;;;;0.00;87.13;100988.86;459356;114;930283;-75
2021/12/30 01:45:35;;;;;;;12.52;11.47;;;;;;;0.01;87.15;100990.53;458430;113;922547;-75
2021/12/30 01:46:41;;;;;;;12.82;11.74;;;;;;;0.02;87.13;100988.70;457194;113;922548;-75
2021/12/30 01:47:53;;;;;;;14.18;13.02;;;;;;;0.03;87.10;100991.25;459828;114;930884;-74
2021/12/30 01:48:56;;;;;;;11.32;10.36;;;;;;;0.05;87.11;100993.80;459186;114;922545;-74
2021/12/30 01:50:00;;;;;;;13.21;11.96;;;;;;;0.06;87.11;100990.96;458161;115;922451;-74
2021/12/30 01:51:05;;;;;;;13.90;12.69;;;;;;;0.07;87.06;100989.98;458510;114;922712;-75
2021/12/30 01:52:09;;;;;;;13.46;12.15;;;;;;;0.07;87.05;100984.62;458616;114;930296;-74
2021/12/30 01:53:13;;;;;;;13.55;12.35;;;;;;;0.09;87.05;100985.34;458948;115;923029;-75
2021/12/30 01:54:16;;;;;;;15.25;14.06;;;;;;;0.08;87.01;100986.33;459288;115;922792;-74
2021/12/30 01:55:22;;;;;;;13.74;12.56;;;;;;;0.08;87.00;100991.69;457993;114;922787;-74
2021/12/30 01:56:26;;;;;;;14.19;13.06;;;;;;;0.09;87.00;100992.53;458901;115;922762;-75
2021/12/30 01:57:29;;;;;;;14.07;12.97;;;;;;;0.09;86.99;100993.39;457971;115;922593;-75
2021/12/30 01:58:36;;;;;;;13.18;12.16;;;;;;;0.10;86.96;100991.55;458736;114;930454;-74
2021/12/30 01:59:39;;;;;;;13.04;11.84;;;;;;;0.11;86.93;100990.58;458853;115;930404;-75
2021/12/30 02:00:45;;;;;;;13.56;12.44;;;;;;;0.09;86.86;100996.06;459213;115;922666;-73
2021/12/30 02:01:56;;;;;;;13.72;12.56;;;;;;;0.09;86.85;100996.06;458970;113;923053;-75
2021/12/30 02:02:55;;;;;;;12.49;11.54;;;;;;;0.09;86.82;100990.70;459047;115;922558;-75
2021/12/30 02:03:59;;;;;;;11.55;10.55;;;;;;;0.10;86.80;101002.28;460034;114;922543;-75
2021/12/30 02:05:03;;;;;;;11.48;10.56;;;;;;;0.10;86.84;100994.23;458834;115;922411;-74
2021/12/30 02:06:06;;;;;;;12.18;11.21;;;;;;;0.12;86.82;100993.09;458918;115;930347;-74
2021/12/30 02:07:10;;;;;;;11.28;10.41;;;;;;;0.13;86.76;100989.44;457993;114;922574;-75
2021/12/30 02:08:16;;;;;;;11.12;10.26;;;;;;;0.14;86.73;100995.65;459793;115;930347;-76
2021/12/30 02:09:20;;;;;;;14.15;12.87;;;;;;;0.13;86.76;100989.44;459869;115;930354;-74
2021/12/30 02:10:25;;;;;;;12.69;11.69;;;;;;;0.13;86.79;100996.63;459064;114;922658;-76
2021/12/30 02:11:29;;;;;;;14.14;12.95;;;;;;;0.13;86.76;100997.48;460056;115;922630;-75
2021/12/30 02:12:37;;;;;;;16.12;14.81;;;;;;;0.12;86.71;100998.45;458332;114;923007;-73
2021/12/30 02:13:41;;;;;;;14.81;13.69;;;;;;;0.13;86.76;101001.98;458198;115;922690;-77
2021/12/30 02:14:44;;;;;;;16.12;14.28;;;;;;;0.12;86.74;100995.78;457802;114;922603;-75
2021/12/30 02:15:49;;;;;;;15.49;14.19;;;;;;;0.13;86.73;101004.67;458065;114;931332;-75
2021/12/30 02:16:53;;;;;;;16.07;14.77;;;;;;;0.13;86.71;101001.98;459120;115;922541;-75
2021/12/30 02:17:58;;;;;;;16.33;14.91;;;;;;;0.13;86.67;101005.52;458469;114;922824;-74
2021/12/30 02:19:02;;;;;;;16.83;15.41;;;;;;;0.12;86.68;101003.82;457739;114;922627;-75
2021/12/30 02:20:09;;;;;;;16.01;14.60;;;;;;;0.12;86.64;101008.33;458519;115;922577;-75
2021/12/30 02:21:13;;;;;;;16.81;15.31;;;;;;;0.12;86.59;101008.33;458423;114;922703;-76
2021/12/30 02:22:17;;;;;;;17.20;15.58;;;;;;;0.09;86.57;101004.11;457268;114;922973;-76
2021/12/30 02:23:29;;;;;;;16.87;15.41;;;;;;;0.10;86.62;101005.81;458780;114;922431;-75
2021/12/30 02:24:34;;;;;;;16.24;14.77;;;;;;;0.08;86.65;101007.77;459127;115;922535;-75
2021/12/30 02:25:38;;;;;;;17.36;15.88;;;;;;;0.09;86.65;101009.47;458233;115;923790;-74
2021/12/30 02:26:41;;;;;;;16.81;15.21;;;;;;;0.11;86.67;101012.84;459034;114;922532;-74
2021/12/30 02:27:45;;;;;;;15.29;13.88;;;;;;;0.12;86.67;101005.65;458680;115;923127;-76
2021/12/30 02:28:48;;;;;;;17.10;15.58;;;;;;;0.12;86.65;101005.65;458060;114;926513;-74
2021/12/30 02:29:52;;;;;;;16.17;14.77;;;;;;;0.12;86.63;101005.65;457460;114;931107;-75
2021/12/30 02:30:57;;;;;;;16.28;14.81;;;;;;;0.14;86.68;101009.05;458438;114;930550;-75
2021/12/30 02:32:00;;;;;;;16.67;15.19;;;;;;;0.14;86.67;101012.59;459345;115;922563;-76
2021/12/30 02:33:04;;;;;;;14.81;13.53;;;;;;;0.14;86.65;101012.59;458105;115;922554;-73
2021/12/30 02:34:07;;;;;;;15.38;13.96;;;;;;;0.15;86.65;101018.80;457849;114;930546;-76
2021/12/30 02:35:11;;;;;;;13.55;12.43;;;;;;;0.15;86.63;101016.13;459081;114;930288;-75
2021/12/30 02:36:18;;;;;;;15.55;14.08;;;;;;;0.14;86.63;101012.59;459322;115;930286;-76
2021/12/30 02:37:22;;;;;;;14.82;13.39;;;;;;;0.14;86.63;101017.09;457451;114;922556;-74
2021/12/30 02:38:26;;;;;;;14.58;13.28;;;;;;;0.13;86.62;101013.56;453122;115;922649;-77
2021/12/30 02:39:30;;;;;;;13.34;12.25;;;;;;;0.13;86.61;101005.52;453200;115;930291;-75
2021/12/30 02:40:37;;;;;;;14.58;13.25;;;;;;;0.13;86.62;101010.88;453480;113;923164;-75
2021/12/30 02:41:40;;;;;;;13.68;12.50;;;;;;;0.13;86.60;101010.03;453729;115;922486;-75
2021/12/30 02:42:43;;;;;;;13.94;12.78;;;;;;;0.11;86.72;101010.16;453265;115;922778;-75
2021/12/30 02:43:49;;;;;;;13.03;11.88;;;;;;;0.11;86.72;101010.16;453893;115;930379;-76
2021/12/30 02:44:53;;;;;;;13.96;12.81;;;;;;;0.10;86.62;101013.86;452157;115;922746;-75
2021/12/30 02:45:58;;;;;;;13.02;11.95;;;;;;;0.10;86.59;101018.37;453175;113;923082;-75
2021/12/30 02:47:02;;;;;;;15.46;14.06;;;;;;;0.09;86.54;101014.83;439858;119;923138;-74
2021/12/30 02:48:07;;;;;;;14.06;12.81;;;;;;;0.08;86.56;101013.13;444555;118;922716;-74
2021/12/30 02:49:11;;;;;;;14.11;13.01;;;;;;;0.09;86.58;101011.30;444450;117;922632;-74
2021/12/30 02:50:14;;;;;;;14.20;13.02;;;;;;;0.10;86.59;101021.05;439544;120;922631;-74
2021/12/30 02:51:18;;;;;;;14.15;12.95;;;;;;;0.09;86.57;101020.20;438252;120;930609;-74
2021/12/30 02:52:22;;;;;;;14.46;13.31;;;;;;;0.10;86.57;101021.90;441729;118;922956;-74
2021/12/30 02:53:25;;;;;;;13.89;12.68;;;;;;;0.09;86.59;101022.88;440488;119;922498;-74
2021/12/30 02:54:29;;;;;;;14.12;12.94;;;;;;;0.10;86.59;101024.58;442114;114;930044;-74
2021/12/30 02:55:32;;;;;;;15.20;13.97;;;;;;;0.11;86.65;101023.56;442159;120;922097;-74
2021/12/30 02:56:36;;;;;;;15.31;14.01;;;;;;;0.14;86.72;101027.83;437241;119;922724;-73
2021/12/30 02:57:39;;;;;;;14.13;12.95;;;;;;;0.17;86.78;101030.22;444109;118;923060;-74
2021/12/30 02:58:43;;;;;;;15.11;13.79;;;;;;;0.19;86.81;101021.06;444983;118;922504;-75
2021/12/30 02:59:46;;;;;;;14.76;13.53;;;;;;;0.22;86.92;101026.14;444181;118;922665;-74
2021/12/30 03:00:52;;;;;;;15.01;13.76;;;;;;;0.24;86.94;101026.86;439273;119;922766;-74
2021/12/30 03:01:56;;;;;;;16.68;15.19;;;;;;;0.26;87.02;101022.22;436765;118;923103;-75
2021/12/30 03:02:59;;;;;;;15.31;14.01;;;;;;;0.27;87.05;101025.75;437965;120;922752;-76
2021/12/30 03:04:03;;;;;;;15.32;14.04;;;;;;;0.29;87.05;101029.97;438681;120;922734;-74
2021/12/30 03:05:08;;;;;;;15.47;14.24;;;;;;;0.30;87.10;101031.67;436936;118;923045;-74
2021/12/30 03:06:15;;;;;;;16.87;15.46;;;;;;;0.30;87.08;101028.14;439899;120;923119;-74
2021/12/30 03:07:18;;;;;;;20.06;18.34;;;;;;;0.30;87.05;101026.31;439236;118;922602;-74
2021/12/30 03:08:22;;;;;;;20.63;18.63;;;;;;;0.31;87.02;101027.16;438898;120;922640;-75
2021/12/30 03:09:25;;;;;;;20.81;18.22;;;;;;;0.31;87.05;101027.16;443562;116;930666;-76
2021/12/30 03:10:29;;;;;;;20.88;18.89;;;;;;;0.29;87.05;101029.97;445905;117;922732;-74
2021/12/30 03:11:32;;;;;;;21.09;19.09;;;;;;;0.30;87.03;101028.99;446434;118;922540;-76
2021/12/30 03:12:36;;;;;;;20.19;18.51;;;;;;;0.30;87.07;101022.78;445797;116;922697;-74
2021/12/30 03:13:42;;;;;;;20.79;18.98;;;;;;;0.32;87.09;101032.40;443817;116;922616;-75
2021/12/30 03:14:44;;;;;;;21.40;19.64;;;;;;;0.31;87.05;101029.84;443778;118;922824;-74
2021/12/30 03:15:48;;;;;;;21.24;19.53;;;;;;;0.32;87.06;101032.40;446054;118;922694;-74
2021/12/30 03:16:52;;;;;;;22.93;21.04;;;;;;;0.32;87.05;101021.67;442178;118;922660;-73
2021/12/30 03:17:55;;;;;;;23.81;21.56;;;;;;;0.33;87.05;101028.70;441389;117;922612;-76
2021/12/30 03:18:59;;;;;;;19.46;17.75;;;;;;;0.33;87.04;101028.70;445570;118;930555;-76
2021/12/30 03:20:03;;;;;;;19.99;18.34;;;;;;;0.34;87.08;101035.77;445793;117;923528;-74
2021/12/30 03:21:09;;;;;;;20.30;18.39;;;;;;;0.34;87.08;101041.13;445576;118;923047;-76
2021/12/30 03:22:12;;;;;;;20.83;18.91;;;;;;;0.34;87.06;101034.92;440035;120;922711;-75
2021/12/30 03:23:16;;;;;;;19.91;17.96;;;;;;;0.34;87.09;101037.60;440122;118;922976;-74
2021/12/30 03:24:19;;;;;;;22.14;20.19;;;;;;;0.35;87.06;101031.25;434604;120;923011;-74
2021/12/30 03:25:22;;;;;;;23.41;21.09;;;;;;;0.33;87.02;101039.43;449219;115;930572;-75
2021/12/30 03:26:27;;;;;;;22.29;20.22;;;;;;;0.32;87.01;101040.44;451873;115;922969;-76
2021/12/30 03:27:30;;;;;;;21.86;20.01;;;;;;;0.32;86.97;101037.77;455268;115;922599;-75
2021/12/30 03:28:34;;;;;;;21.52;19.69;;;;;;;0.32;86.97;101036.91;453494;115;923225;-74
2021/12/30 03:29:38;;;;;;;21.75;19.77;;;;;;;0.32;86.97;101037.77;454122;115;922559;-76
2021/12/30 03:30:41;;;;;;;19.73;18.14;;;;;;;0.33;87.00;101035.93;453227;115;922599;-74
2021/12/30 03:31:45;;;;;;;21.43;19.61;;;;;;;0.34;87.03;101042.97;453405;115;923036;-76
2021/12/30 03:32:49;;;;;;;19.04;17.47;;;;;;;0.34;87.03;101042.97;454980;115;930484;-75
2021/12/30 03:33:53;;;;;;;18.94;17.30;;;;;;;0.33;87.01;101041.30;451952;115;930626;-75
2021/12/30 03:34:56;;;;;;;17.74;16.26;;;;;;;0.33;86.95;101046.66;453678;113;930481;-75
2021/12/30 03:36:02;;;;;;;18.53;16.99;;;;;;;0.31;86.92;101044.11;453444;115;930538;-75
2021/12/30 03:37:05;;;;;;;17.98;16.36;;;;;;;0.31;86.95;101046.79;453005;115;923281;-75
2021/12/30 03:38:09;;;;;;;19.02;17.26;;;;;;;0.30;86.93;101039.72;453578;115;922665;-74
2021/12/30 03:39:14;;;;;;;17.63;16.23;;;;;;;0.31;86.95;101045.94;454324;115;922596;-75
2021/12/30 03:40:18;;;;;;;18.42;16.83;;;;;;;0.32;86.93;101048.48;453940;116;922600;-75
2021/12/30 03:41:25;;;;;;;16.48;15.03;;;;;;;0.32;86.91;101045.81;455512;116;922601;-75
2021/12/30 03:42:29;;;;;;;16.67;15.16;;;;;;;0.32;86.89;101047.64;453919;115;922320;-73
2021/12/30 03:43:33;;;;;;;16.96;15.26;;;;;;;0.30;86.83;101047.77;455238;116;922364;-75
2021/12/30 03:44:36;;;;;;;17.08;15.39;;;;;;;0.31;86.81;101045.94;453444;116;923200;-75
2021/12/30 03:45:40;;;;;;;17.11;15.50;;;;;;;0.31;86.79;101046.79;456155;116;923146;-76
2021/12/30 03:46:43;;;;;;;18.79;14.43;;;;;;;0.31;86.78;101045.94;453115;115;923822;-72
2021/12/30 03:47:48;;;;;;;15.77;14.38;;;;;;;0.30;86.78;101049.59;453598;116;922781;-75
2021/12/30 03:48:52;;;;;;;17.31;15.57;;;;;;;0.29;86.77;101054.11;455607;116;930901;-74
2021/12/30 03:49:55;;;;;;;15.32;13.93;;;;;;;0.30;86.80;101052.28;454650;116;922471;-75
2021/12/30 03:51:05;;;;;;;17.05;15.04;;;;;;;0.29;86.76;101047.89;453907;116;930588;-77
2021/12/30 03:52:08;;;;;;;15.86;14.24;;;;;;;0.29;86.75;101053.26;453694;115;930551;-74
2021/12/30 03:53:14;;;;;;;15.91;14.42;;;;;;;0.28;86.78;101063.14;455044;116;922595;-74
2021/12/30 03:54:18;;;;;;;16.07;14.67;;;;;;;0.28;86.78;101063.14;454188;115;930685;-72
2021/12/30 03:55:23;;;;;;;14.62;13.28;;;;;;;0.26;86.66;101056.23;454596;115;923014;-77
2021/12/30 03:56:29;;;;;;;15.66;14.12;;;;;;;0.25;86.67;101054.53;454086;116;922663;-74
2021/12/30 03:57:32;;;;;;;16.32;14.72;;;;;;;0.24;86.70;101067.08;455121;116;922781;-74
2021/12/30 03:58:36;;;;;;;15.91;14.34;;;;;;;0.26;86.64;101058.91;455412;115;924179;-73
2021/12/30 03:59:40;;;;;;;15.84;13.90;;;;;;;0.24;86.70;101061.72;453540;115;922518;-73
2021/12/30 04:00:43;;;;;;;16.71;14.52;;;;;;;0.24;86.66;101064.41;453878;116;930341;-74
2021/12/30 04:01:47;;;;;;;14.91;13.54;;;;;;;0.25;86.69;101062.57;454744;116;923405;-75
2021/12/30 04:02:50;;;;;;;16.21;14.21;;;;;;;0.27;86.73;101065.98;453124;116;922624;-75
2021/12/30 04:03:54;;;;;;;14.04;12.64;;;;;;;0.28;86.71;101060.45;453685;116;930542;-74
2021/12/30 04:04:58;;;;;;;15.84;14.32;;;;;;;0.27;86.73;101064.15;453530;116;923281;-73
2021/12/30 04:06:01;;;;;;;15.48;13.88;;;;;;;0.28;86.73;101063.14;453872;116;922825;-76
2021/12/30 04:07:05;;;;;;;15.91;14.34;;;;;;;0.27;86.71;101063.30;453782;115;923096;-72
2021/12/30 04:08:09;;;;;;;16.23;14.64;;;;;;;0.27;86.69;101066.83;453968;116;930331;-74
2021/12/30 04:09:12;;;;;;;15.56;14.00;;;;;;;0.27;86.71;101060.61;454247;116;922698;-75
2021/12/30 04:10:21;;;;;;;15.87;14.36;;;;;;;0.29;86.74;101063.98;453735;115;922665;-75
2021/12/30 04:11:29;;;;;;;17.56;15.88;;;;;;;0.30;86.77;101065.69;454065;116;922821;-74
2021/12/30 04:12:32;;;;;;;16.67;15.05;;;;;;;0.30;86.77;101066.54;453696;116;923281;-75
2021/12/30 04:13:36;;;;;;;18.33;16.46;;;;;;;0.31;86.79;101065.56;454720;115;922596;-78
2021/12/30 04:14:40;;;;;;;18.53;16.75;;;;;;;0.32;86.84;101059.22;454641;115;923042;-75
2021/12/30 04:15:43;;;;;;;20.08;18.01;;;;;;;0.34;86.86;101059.05;453753;115;922686;-74
2021/12/30 04:16:48;;;;;;;18.77;16.98;;;;;;;0.36;86.91;101060.63;453106;116;922637;-75
2021/12/30 04:17:51;;;;;;;16.95;15.35;;;;;;;0.37;86.90;101056.97;453903;115;930865;-74
2021/12/30 04:18:55;;;;;;;17.64;16.04;;;;;;;0.38;86.91;101064.03;454843;116;930507;-75
2021/12/30 04:19:58;;;;;;;17.99;16.32;;;;;;;0.38;86.91;101055.98;453383;116;931031;-74
2021/12/30 04:21:02;;;;;;;18.46;16.88;;;;;;;0.37;86.83;101062.33;453532;116;922579;-75
2021/12/30 04:22:05;;;;;;;17.55;16.09;;;;;;;0.36;86.83;101052.59;454031;116;922869;-74
2021/12/30 04:23:09;;;;;;;17.57;16.05;;;;;;;0.37;86.79;101058.80;453602;116;922979;-75
2021/12/30 04:24:13;;;;;;;17.91;16.36;;;;;;;0.34;86.79;101057.23;454612;116;930619;-75
2021/12/30 04:25:16;;;;;;;16.41;14.99;;;;;;;0.35;86.83;101064.30;454097;116;923300;-74
2021/12/30 04:26:21;;;;;;;18.85;17.14;;;;;;;0.34;86.80;101065.27;453288;116;922537;-74
2021/12/30 04:27:24;;;;;;;18.13;16.35;;;;;;;0.36;86.81;101059.78;453989;116;922265;-75
2021/12/30 04:28:28;;;;;;;18.06;16.39;;;;;;;0.35;86.77;101056.25;454806;116;930578;-75
2021/12/30 04:29:31;;;;;;;17.73;16.19;;;;;;;0.36;86.77;101060.63;456451;116;923120;-74
2021/12/30 04:30:36;;;;;;;17.66;16.09;;;;;;;0.37;86.79;101059.66;454038;115;922690;-74
2021/12/30 04:31:39;;;;;;;17.85;16.18;;;;;;;0.37;86.83;101058.80;453700;115;923010;-74
2021/12/30 04:32:44;;;;;;;16.84;15.41;;;;;;;0.38;86.85;101064.03;453649;116;922556;-75
2021/12/30 04:33:48;;;;;;;16.68;15.28;;;;;;;0.39;86.85;101057.66;453564;115;922668;-75
2021/12/30 04:34:51;;;;;;;17.87;16.15;;;;;;;0.39;86.85;101054.13;454892;116;923087;-74
2021/12/30 04:35:56;;;;;;;16.28;14.74;;;;;;;0.38;86.83;101060.50;454338;116;930637;-75
2021/12/30 04:36:59;;;;;;;16.04;14.59;;;;;;;0.37;86.82;101061.48;455458;116;927132;-77
2021/12/30 04:38:02;;;;;;;15.90;14.56;;;;;;;0.36;86.83;101060.63;453108;115;930651;-76
2021/12/30 04:39:06;;;;;;;16.81;15.34;;;;;;;0.35;86.79;101064.30;454971;114;930586;-74
2021/12/30 04:40:12;;;;;;;16.75;15.39;;;;;;;0.34;86.78;101065.27;456214;113;922585;-75
2021/12/30 04:41:16;;;;;;;16.69;15.16;;;;;;;0.33;86.78;101066.25;455257;113;930540;-74
2021/12/30 04:42:19;;;;;;;17.17;15.50;;;;;;;0.33;86.77;101071.61;456041;113;923305;-76
2021/12/30 04:43:23;;;;;;;15.46;14.21;;;;;;;0.33;86.76;101065.44;456181;114;930784;-72
2021/12/30 04:44:26;;;;;;;16.07;14.69;;;;;;;0.31;86.73;101068.24;455437;113;930820;-75
2021/12/30 04:45:30;;;;;;;15.23;13.97;;;;;;;0.30;86.71;101065.69;456417;115;923201;-76
2021/12/30 04:46:36;;;;;;;14.93;13.54;;;;;;;0.30;86.66;101071.05;451295;115;922939;-75
2021/12/30 04:47:40;;;;;;;14.53;13.33;;;;;;;0.28;86.67;101079.23;452786;115;922695;-75
2021/12/30 04:48:43;;;;;;;14.03;12.93;;;;;;;0.26;86.61;101072.32;456974;115;922719;-76
2021/12/30 04:49:47;;;;;;;16.04;14.34;;;;;;;0.27;86.58;101071.34;457653;114;922865;-76
2021/12/30 04:50:50;;;;;;;14.91;13.68;;;;;;;0.26;86.53;101075.00;455917;113;930425;-74
2021/12/30 04:51:53;;;;;;;14.99;13.74;;;;;;;0.23;86.55;101070.74;455176;114;930357;-75